Time;durP1;ratioP1;P1;durP2;ratioP2;P2;SDS_P1;SDS_P2;PMS_P1;PMS_P2;Temp;Humidity;BMP_temperature;BMP_pressure;BME280_temperature;BME280_humidity;BME280_pressure;Samples;Min_cycle;Max_cycle;Signal;HPM_P1;HPM_P2
2023/09/26 00:00:55;;;;;;;;;;;;;;;16.41;45.77;101022.94;4943320;29;1183;-56
2023/09/26 00:03:21;;;;;;;;;;;;;;;16.42;45.67;101025.44;4954261;29;1070;-57
2023/09/26 00:05:48;;;;;;;;;;;;;;;16.42;45.59;101027.34;4947365;29;1065;-55
2023/09/26 00:08:14;;;;;;;;;;;;;;;16.39;45.59;101025.97;4954858;29;1060;-54
2023/09/26 00:10:39;;;;;;;;;;;;;;;16.43;45.48;101020.78;4955178;29;1148;-54
2023/09/26 00:13:05;;;;;;;;;;;;;;;16.37;45.69;101019.91;4948911;29;1041;-55
2023/09/26 00:15:30;;;;;;;;;;;;;;;16.44;45.23;101019.69;4961683;29;1922;-55
2023/09/26 00:17:57;;;;;;;;;;;;;;;16.34;45.65;101014.97;4960583;29;1112;-55
2023/09/26 00:20:30;;;;;;;;;;;;;;;16.39;45.34;101017.72;4961567;29;1123;-54
2023/09/26 00:22:56;;;;;;;;;;;;;;;16.24;45.58;101018.50;4961412;29;1092;-55
2023/09/26 00:25:22;;;;;;;;;;;;;;;16.34;45.62;101014.97;4960822;29;1070;-55
2023/09/26 00:27:47;;;;;;;;;;;;;;;16.28;45.57;101016.03;4954947;29;1109;-55
2023/09/26 00:30:13;;;;;;;;;;;;;;;16.15;45.88;101027.47;4946781;29;1444;-53
2023/09/26 00:32:38;;;;;;;;;;;;;;;16.26;45.70;101023.69;4953547;29;1371;-55
2023/09/26 00:35:05;;;;;;;;;;;;;;;16.25;45.65;101028.34;4953494;29;1906;-55
2023/09/26 00:37:31;;;;;;;;;;;;;;;16.22;45.56;101034.38;4947289;29;1191;-55
2023/09/26 00:39:56;;;;;;;;;;;;;;;16.41;45.94;101033.91;4948130;29;1167;-55
2023/09/26 00:42:22;;;;;;;;;;;;;;;16.72;47.21;101025.88;4959548;29;1184;-55
2023/09/26 00:44:47;;;;;;;;;;;;;;;16.47;47.10;101023.81;4959599;29;1093;-55
2023/09/26 00:47:13;;;;;;;;;;;;;;;16.47;46.62;101026.56;4960568;29;1140;-55
2023/09/26 00:49:38;;;;;;;;;;;;;;;16.47;46.12;101026.56;4954157;29;1223;-55
2023/09/26 00:52:04;;;;;;;;;;;;;;;16.47;46.07;101032.06;4960692;29;1060;-55
2023/09/26 00:54:29;;;;;;;;;;;;;;;16.44;45.63;101033.41;4951312;29;1971;-55
2023/09/26 00:56:55;;;;;;;;;;;;;;;16.98;46.62;101046.00;4927381;29;2049;-55
2023/09/26 00:59:21;;;;;;;;;;;;;;;17.00;47.72;101032.00;4941573;29;1169;-55
2023/09/26 01:01:49;;;;;;;;;;;;;;;16.65;47.73;101039.81;4959395;29;1169;-55
2023/09/26 01:04:15;;;;;;;;;;;;;;;16.59;47.06;101025.25;4959020;29;1232;-55
2023/09/26 01:06:41;;;;;;;;;;;;;;;16.57;46.70;101032.09;4972043;28;1022;-55
2023/09/26 01:09:07;;;;;;;;;;;;;;;16.52;46.17;101032.91;4960358;29;1196;-55
2023/09/26 01:11:32;;;;;;;;;;;;;;;16.53;45.74;101034.53;4951369;28;1208;-55
2023/09/26 01:13:58;;;;;;;;;;;;;;;16.52;45.54;101035.66;4955105;29;1906;-56
2023/09/26 01:16:23;;;;;;;;;;;;;;;16.36;45.84;101037.47;4958809;29;1419;-55
2023/09/26 01:18:49;;;;;;;;;;;;;;;16.43;45.53;101029.81;4949805;29;1113;-55
2023/09/26 01:21:14;;;;;;;;;;;;;;;16.45;45.49;101029.56;4939831;29;1165;-56
2023/09/26 01:23:41;;;;;;;;;;;;;;;17.01;46.40;101034.50;4954434;29;1041;-56
2023/09/26 01:26:07;;;;;;;;;;;;;;;16.97;47.20;101021.56;4958958;29;1573;-56
2023/09/26 01:28:33;;;;;;;;;;;;;;;16.66;47.26;101033.25;4960134;29;1140;-56
2023/09/26 01:30:58;;;;;;;;;;;;;;;16.56;46.80;101024.94;4955306;29;1278;-56
2023/09/26 01:33:23;;;;;;;;;;;;;;;16.51;46.45;101013.94;4959805;29;1931;-56
2023/09/26 01:35:51;;;;;;;;;;;;;;;16.62;45.77;101015.66;4947635;29;1093;-55
2023/09/26 01:38:19;;;;;;;;;;;;;;;16.57;45.62;101021.94;4958925;29;1120;-55
2023/09/26 01:40:47;;;;;;;;;;;;;;;16.47;45.91;101013.66;4959809;29;1064;-55
2023/09/26 01:43:13;;;;;;;;;;;;;;;16.45;45.63;101009.53;4956605;29;1148;-55
2023/09/26 01:45:39;;;;;;;;;;;;;;;16.45;45.55;101020.50;4959829;29;1071;-55
2023/09/26 01:48:05;;;;;;;;;;;;;;;16.41;45.60;101015.56;4959015;29;1038;-55
2023/09/26 01:50:31;;;;;;;;;;;;;;;16.50;46.40;101012.31;4930787;29;1213;-55
2023/09/26 01:52:57;;;;;;;;;;;;;;;16.90;47.28;101014.41;4957734;29;1443;-55
2023/09/26 01:55:23;;;;;;;;;;;;;;;16.65;47.13;101023.34;4949899;29;1993;-55
2023/09/26 01:57:48;;;;;;;;;;;;;;;16.58;46.54;101022.78;4958008;29;1120;-55
2023/09/26 02:00:14;;;;;;;;;;;;;;;16.62;46.24;101026.63;4945967;29;1182;-56
2023/09/26 02:02:43;;;;;;;;;;;;;;;16.49;45.91;101022.44;4958373;29;1128;-55
2023/09/26 02:05:10;;;;;;;;;;;;;;;16.51;45.79;101024.91;4947791;29;1049;-55
2023/09/26 02:07:35;;;;;;;;;;;;;;;16.46;45.67;101028.47;4948576;29;1181;-55
2023/09/26 02:10:01;;;;;;;;;;;;;;;16.40;45.55;101029.56;4959030;29;1136;-55
2023/09/26 02:12:27;;;;;;;;;;;;;;;16.38;45.58;101027.06;4958860;29;1037;-55
2023/09/26 02:14:52;;;;;;;;;;;;;;;17.09;46.65;101033.97;4959323;29;1983;-55
2023/09/26 02:17:18;;;;;;;;;;;;;;;16.81;47.35;101034.41;4944816;29;1152;-55
2023/09/26 02:19:44;;;;;;;;;;;;;;;16.68;46.88;101031.06;4951240;29;935;-55
2023/09/26 02:22:09;;;;;;;;;;;;;;;16.63;46.37;101036.50;4951373;28;1189;-54
2023/09/26 02:24:35;;;;;;;;;;;;;;;16.51;46.24;101039.50;4940372;29;1121;-55
2023/09/26 02:27:00;;;;;;;;;;;;;;;16.54;45.86;101038.94;4953088;29;1497;-55
2023/09/26 02:29:27;;;;;;;;;;;;;;;16.93;46.04;101041.34;4959555;29;1097;-55
2023/09/26 02:31:52;;;;;;;;;;;;;;;17.00;47.41;101041.09;4955025;29;1247;-55
2023/09/26 02:34:19;;;;;;;;;;;;;;;16.71;47.57;101046.97;4948107;29;1902;-54
2023/09/26 02:36:44;;;;;;;;;;;;;;;16.72;46.76;101040.41;4958867;29;1112;-55
2023/09/26 02:39:10;;;;;;;;;;;;;;;16.64;46.40;101040.91;4958737;29;1118;-55
2023/09/26 02:41:37;;;;;;;;;;;;;;;16.63;46.11;101038.44;4958544;29;1120;-55
2023/09/26 02:44:03;;;;;;;;;;;;;;;16.54;46.03;101040.88;4944980;29;925;-55
2023/09/26 02:46:29;;;;;;;;;;;;;;;16.64;45.42;101042.84;4941433;29;1156;-54
2023/09/26 02:48:54;;;;;;;;;;;;;;;16.46;45.92;101036.69;4959098;29;1101;-56
2023/09/26 02:51:20;;;;;;;;;;;;;;;16.61;45.39;101049.69;4945719;29;1050;-55
2023/09/26 02:53:45;;;;;;;;;;;;;;;16.48;45.47;101045.50;4950231;29;1898;-55
2023/09/26 02:56:11;;;;;;;;;;;;;;;16.55;45.31;101037.88;4940094;29;1873;-55
2023/09/26 02:58:36;;;;;;;;;;;;;;;16.42;45.62;101044.66;4951330;29;1017;-55
2023/09/26 03:01:03;;;;;;;;;;;;;;;16.43;45.34;101045.47;4951481;29;1283;-55
2023/09/26 03:03:29;;;;;;;;;;;;;;;16.42;45.46;101039.16;4958364;29;995;-55
2023/09/26 03:05:55;;;;;;;;;;;;;;;16.40;45.39;101040.53;4945570;29;1065;-55
2023/09/26 03:08:20;;;;;;;;;;;;;;;16.41;45.37;101048.50;4956280;29;1109;-55
2023/09/26 03:10:46;;;;;;;;;;;;;;;16.37;45.35;101052.84;4945539;29;1243;-55
2023/09/26 03:13:11;;;;;;;;;;;;;;;16.34;45.49;101055.28;4951058;29;1053;-55
2023/09/26 03:15:37;;;;;;;;;;;;;;;16.41;45.41;101058.63;4951837;28;1985;-55
2023/09/26 03:18:02;;;;;;;;;;;;;;;17.14;46.41;101059.78;4954292;28;2724;-56
2023/09/26 03:20:28;;;;;;;;;;;;;;;16.67;47.23;101062.34;4947268;28;1952;-50
2023/09/26 03:22:54;;;;;;;;;;;;;;;16.62;46.88;101058.75;4956518;28;1912;-49
2023/09/26 03:25:21;;;;;;;;;;;;;;;16.57;46.29;101068.59;4941754;29;2095;-50
2023/09/26 03:27:47;;;;;;;;;;;;;;;16.49;46.31;101068.28;4938773;29;1844;-50
2023/09/26 03:30:16;;;;;;;;;;;;;;;16.44;45.78;101074.59;4938480;29;2130;-50
2023/09/26 03:32:41;;;;;;;;;;;;;;;16.47;45.63;101073.22;4951125;28;2124;-54
2023/09/26 03:35:09;;;;;;;;;;;;;;;16.43;45.55;101073.75;4959839;28;1977;-53
2023/09/26 03:37:35;;;;;;;;;;;;;;;16.39;45.47;101072.63;4961575;29;1120;-54
2023/09/26 03:40:00;;;;;;;;;;;;;;;16.37;45.42;101074.81;4947888;29;1124;-53
2023/09/26 03:42:26;;;;;;;;;;;;;;;16.30;45.51;101085.19;4954744;29;1175;-56
2023/09/26 03:44:51;;;;;;;;;;;;;;;16.25;45.37;101082.41;4958400;29;881;-56
2023/09/26 03:47:17;;;;;;;;;;;;;;;16.39;45.19;101085.53;4961508;29;1053;-56
2023/09/26 03:49:42;;;;;;;;;;;;;;;16.28;45.38;101081.88;4960849;29;1073;-54
2023/09/26 03:52:08;;;;;;;;;;;;;;;16.31;45.38;101094.25;4949524;29;1110;-58
2023/09/26 03:54:34;;;;;;;;;;;;;;;16.28;45.35;101087.38;4948688;29;1981;-56
2023/09/26 03:57:00;;;;;;;;;;;;;;;16.22;45.21;101094.72;4951670;29;905;-56
2023/09/26 03:59:25;;;;;;;;;;;;;;;16.24;45.34;101089.81;4961452;29;1088;-56
2023/09/26 04:01:51;;;;;;;;;;;;;;;16.19;45.44;101097.19;4961236;29;2518;-56
2023/09/26 04:04:17;;;;;;;;;;;;;;;16.21;45.20;101097.75;4948734;29;1160;-57
2023/09/26 04:06:42;;;;;;;;;;;;;;;16.17;45.31;101096.63;4961576;29;1147;-56
2023/09/26 04:09:09;;;;;;;;;;;;;;;16.89;46.15;101105.34;4946475;29;907;-56
2023/09/26 04:11:34;;;;;;;;;;;;;;;16.55;46.87;101102.91;4949433;29;1165;-56
2023/09/26 04:14:00;;;;;;;;;;;;;;;16.52;46.66;101114.41;4948122;29;1908;-57
2023/09/26 04:16:25;;;;;;;;;;;;;;;16.36;46.46;101108.81;4961194;29;1053;-56
2023/09/26 04:18:51;;;;;;;;;;;;;;;16.38;45.89;101109.41;4960986;29;1001;-56
2023/09/26 04:21:16;;;;;;;;;;;;;;;16.34;46.51;101102.78;4953675;29;1013;-56
2023/09/26 04:23:42;;;;;;;;;;;;;;;16.37;46.76;101105.00;4955118;29;1124;-57
2023/09/26 04:26:13;;;;;;;;;;;;;;;16.43;47.33;101111.34;4960770;29;1021;-57
2023/09/26 04:28:39;;;;;;;;;;;;;;;16.37;47.98;101109.69;4947860;29;1101;-56
2023/09/26 04:31:05;;;;;;;;;;;;;;;16.55;47.70;101103.75;4956898;29;2471;-56
2023/09/26 04:33:30;;;;;;;;;;;;;;;16.57;48.11;101117.22;4942062;28;1907;-56
2023/09/26 04:35:57;;;;;;;;;;;;;;;16.48;47.84;101113.28;4949626;29;1157;-56
2023/09/26 04:38:23;;;;;;;;;;;;;;;16.77;47.28;101111.84;4947730;29;1105;-57
2023/09/26 04:40:48;;;;;;;;;;;;;;;17.57;46.69;101120.94;4960751;29;1049;-57
2023/09/26 04:43:14;;;;;;;;;;;;;;;17.26;47.71;101126.34;4959954;29;1077;-56
2023/09/26 04:45:39;;;;;;;;;;;;;;;17.13;48.31;101115.88;4949158;29;863;-56
2023/09/26 04:48:05;;;;;;;;;;;;;;;17.02;48.68;101113.06;4946204;29;1156;-56
2023/09/26 04:50:30;;;;;;;;;;;;;;;16.97;49.23;101120.47;4949438;29;968;-56
2023/09/26 04:52:56;;;;;;;;;;;;;;;16.89;49.74;101114.38;4947650;29;1045;-57
2023/09/26 04:55:22;;;;;;;;;;;;;;;16.83;49.99;101123.69;4952485;29;1910;-57
2023/09/26 04:57:47;;;;;;;;;;;;;;;16.83;50.13;101126.41;4947537;29;966;-57
2023/09/26 05:00:17;;;;;;;;;;;;;;;16.76;50.28;101125.84;4952813;29;1115;-56
2023/09/26 05:02:43;;;;;;;;;;;;;;;16.68;50.65;101131.84;4957637;29;2557;-56
2023/09/26 05:05:08;;;;;;;;;;;;;;;16.68;50.97;101124.41;4960260;29;1062;-57
2023/09/26 05:07:34;;;;;;;;;;;;;;;16.61;50.91;101126.56;4946692;29;1211;-57
2023/09/26 05:10:00;;;;;;;;;;;;;;;16.54;51.19;101128.72;4952395;29;1080;-54
2023/09/26 05:12:25;;;;;;;;;;;;;;;16.50;51.63;101130.34;4953671;29;1088;-55
2023/09/26 05:14:51;;;;;;;;;;;;;;;16.54;51.49;101134.22;4947916;29;1967;-55
2023/09/26 05:17:16;;;;;;;;;;;;;;;17.53;49.77;101139.06;4945424;29;1057;-55
2023/09/26 05:19:42;;;;;;;;;;;;;;;17.07;50.75;101129.56;4942007;29;1109;-55
2023/09/26 05:22:07;;;;;;;;;;;;;;;16.90;51.39;101137.19;4958678;29;1017;-54
2023/09/26 05:24:33;;;;;;;;;;;;;;;16.80;51.55;101135.16;4948915;29;1181;-55
2023/09/26 05:26:58;;;;;;;;;;;;;;;16.74;51.73;101131.56;4958355;29;1005;-55
2023/09/26 05:29:24;;;;;;;;;;;;;;;16.71;51.76;101134.84;4949015;29;1010;-55
2023/09/26 05:31:50;;;;;;;;;;;;;;;16.63;52.06;101127.13;4944982;29;2425;-55
2023/09/26 05:34:15;;;;;;;;;;;;;;;16.60;52.34;101141.38;4948168;29;1902;-54
2023/09/26 05:36:41;;;;;;;;;;;;;;;16.56;52.22;101137.50;4958288;29;1061;-55
2023/09/26 05:39:07;;;;;;;;;;;;;;;16.52;52.22;101148.22;4948241;29;1164;-55
2023/09/26 05:41:32;;;;;;;;;;;;;;;16.49;52.28;101142.41;4958093;29;1112;-56
2023/09/26 05:43:58;;;;;;;;;;;;;;;16.87;52.07;101146.78;4941571;29;1052;-55
2023/09/26 05:46:24;;;;;;;;;;;;;;;17.36;51.06;101151.13;4957776;29;1097;-55
2023/09/26 05:48:50;;;;;;;;;;;;;;;16.95;52.29;101144.63;4940489;29;1080;-54
2023/09/26 05:51:15;;;;;;;;;;;;;;;16.79;52.80;101151.91;4954308;29;1184;-55
2023/09/26 05:53:41;;;;;;;;;;;;;;;16.67;52.93;101147.47;4951630;29;1987;-55
2023/09/26 05:56:07;;;;;;;;;;;;;;;16.69;52.79;101150.78;4952776;28;1025;-55
2023/09/26 05:58:33;;;;;;;;;;;;;;;16.63;52.63;101142.78;4951472;29;1074;-55
2023/09/26 06:01:05;;;;;;;;;;;;;;;16.61;52.85;101143.03;4952977;29;1904;-55
2023/09/26 06:03:30;;;;;;;;;;;;;;;16.52;53.14;101144.63;4959122;29;1112;-55
2023/09/26 06:05:56;;;;;;;;;;;;;;;16.54;52.96;101146.00;4956952;29;1009;-55
2023/09/26 06:08:21;;;;;;;;;;;;;;;16.50;53.18;101138.56;4944327;29;1044;-54
2023/09/26 06:10:53;;;;;;;;;;;;;;;17.52;51.92;101148.44;4945362;29;1204;-54
2023/09/26 06:13:18;;;;;;;;;;;;;;;17.25;52.72;101146.66;4948046;29;1007;-56
2023/09/26 06:15:44;;;;;;;;;;;;;;;16.98;53.19;101147.66;4955684;29;1903;-55
2023/09/26 06:18:10;;;;;;;;;;;;;;;16.88;53.44;101142.94;4948226;29;1057;-55
2023/09/26 06:20:38;;;;;;;;;;;;;;;16.82;53.28;101148.66;4947332;29;1117;-55
2023/09/26 06:23:03;;;;;;;;;;;;;;;16.72;53.37;101142.00;4950922;28;1341;-55
2023/09/26 06:25:29;;;;;;;;;;;;;;;16.64;53.73;101147.19;4958940;29;1145;-54
2023/09/26 06:27:54;;;;;;;;;;;;;;;16.70;53.50;101148.84;4947709;29;1022;-55
2023/09/26 06:30:20;;;;;;;;;;;;;;;16.64;53.55;101147.19;4956715;29;1146;-54
2023/09/26 06:32:46;;;;;;;;;;;;;;;17.48;52.77;101152.81;4953199;29;2552;-55
2023/09/26 06:35:11;;;;;;;;;;;;;;;17.30;53.21;101148.63;4943961;29;1910;-55
2023/09/26 06:37:37;;;;;;;;;;;;;;;16.99;53.87;101141.09;4947820;29;1085;-56
2023/09/26 06:40:06;;;;;;;;;;;;;;;16.89;54.01;101141.03;4952312;29;1053;-55
2023/09/26 06:42:31;;;;;;;;;;;;;;;16.81;54.25;101141.50;4939690;29;1049;-55
2023/09/26 06:44:58;;;;;;;;;;;;;;;16.84;53.74;101139.03;4951710;29;1154;-55
2023/09/26 06:47:24;;;;;;;;;;;;;;;16.76;54.02;101137.63;4950897;29;1096;-55
2023/09/26 06:49:49;;;;;;;;;;;;;;;16.73;53.85;101138.19;4958153;29;1137;-55
2023/09/26 06:52:15;;;;;;;;;;;;;;;16.65;54.19;101141.41;4945615;29;1097;-55
2023/09/26 06:54:41;;;;;;;;;;;;;;;16.63;53.99;101145.53;4957035;29;2045;-55
2023/09/26 06:57:08;;;;;;;;;;;;;;;16.60;53.87;101125.72;4958105;29;1009;-55
2023/09/26 06:59:35;;;;;;;;;;;;;;;16.62;54.07;101130.97;4952807;29;1126;-56
2023/09/26 07:02:00;;;;;;;;;;;;;;;16.61;53.87;101129.31;4951036;29;1734;-56
2023/09/26 07:04:25;;;;;;;;;;;;;;;16.57;54.23;101141.91;4963234;28;1146;-57
2023/09/26 07:06:51;;;;;;;;;;;;;;;16.57;54.05;101133.69;4968685;28;1137;-56
2023/09/26 07:09:16;;;;;;;;;;;;;;;16.48;54.41;101138.00;4952078;28;1220;-56
2023/09/26 07:11:42;;;;;;;;;;;;;;;16.50;54.33;101133.09;4958193;29;1256;-55
2023/09/26 07:14:07;;;;;;;;;;;;;;;16.51;54.17;101134.72;4957613;28;1910;-55
2023/09/26 07:16:33;;;;;;;;;;;;;;;16.46;54.24;101135.53;4957047;29;1300;-54
2023/09/26 07:19:02;;;;;;;;;;;;;;;16.53;54.13;101135.28;4958115;29;1045;-55
2023/09/26 07:21:28;;;;;;;;;;;;;;;16.51;54.18;101141.06;4949784;28;1279;-54
2023/09/26 07:23:53;;;;;;;;;;;;;;;16.49;54.27;101143.22;4954468;29;1442;-53
2023/09/26 07:26:20;;;;;;;;;;;;;;;16.80;54.63;101148.09;4957970;29;1240;-55
2023/09/26 07:28:46;;;;;;;;;;;;;;;17.60;54.20;101154.22;4957913;28;1283;-56
2023/09/26 07:31:12;;;;;;;;;;;;;;;17.10;55.20;101148.28;4957510;29;1889;-55
2023/09/26 07:33:38;;;;;;;;;;;;;;;16.91;55.27;101150.66;4953097;28;1989;-55
2023/09/26 07:36:03;;;;;;;;;;;;;;;16.84;55.18;101149.22;4957910;29;1259;-54
2023/09/26 07:38:29;;;;;;;;;;;;;;;16.77;55.12;101161.28;4956534;29;1371;-53
2023/09/26 07:40:55;;;;;;;;;;;;;;;16.83;55.23;101161.28;4957468;28;1007;-55
2023/09/26 07:43:21;;;;;;;;;;;;;;;16.75;55.33;101163.44;4953385;29;1196;-55
2023/09/26 07:45:46;;;;;;;;;;;;;;;16.73;54.96;101153.81;4946201;29;1078;-55
2023/09/26 07:48:12;;;;;;;;;;;;;;;16.72;54.71;101158.47;4961323;28;1342;-56
2023/09/26 07:50:38;;;;;;;;;;;;;;;16.75;54.76;101173.59;4966288;28;1322;-56
2023/09/26 07:53:03;;;;;;;;;;;;;;;16.74;54.60;101167.28;4957793;28;1331;-56
2023/09/26 07:55:29;;;;;;;;;;;;;;;16.69;54.49;101171.91;4957726;28;1971;-56
2023/09/26 07:57:54;;;;;;;;;;;;;;;16.65;54.84;101168.03;4952702;28;1362;-57
2023/09/26 08:00:20;;;;;;;;;;;;;;;16.62;54.87;101163.91;4957621;28;1334;-56
2023/09/26 08:02:45;;;;;;;;;;;;;;;16.65;54.76;101168.03;4954922;28;2353;-53
2023/09/26 08:05:11;;;;;;;;;;;;;;;16.64;54.64;101166.41;4957127;28;1037;-51
2023/09/26 08:07:38;;;;;;;;;;;;;;;16.58;54.72;101158.13;4957181;28;1327;-54
2023/09/26 08:10:04;;;;;;;;;;;;;;;16.66;54.71;101154.06;4949067;28;1326;-56
2023/09/26 08:12:30;;;;;;;;;;;;;;;16.59;54.73;101154.28;4955519;29;1185;-56
2023/09/26 08:14:58;;;;;;;;;;;;;;;16.62;54.82;101157.59;4957250;29;1910;-54
2023/09/26 08:17:24;;;;;;;;;;;;;;;17.00;55.28;101153.72;4957268;29;1022;-56
2023/09/26 08:19:49;;;;;;;;;;;;;;;17.53;55.10;101167.41;4969479;28;1025;-55
2023/09/26 08:22:15;;;;;;;;;;;;;;;17.17;55.65;101156.28;4955163;28;1283;-55
2023/09/26 08:24:40;;;;;;;;;;;;;;;16.99;55.97;101157.56;4955822;29;1432;-55
2023/09/26 08:27:06;;;;;;;;;;;;;;;16.98;55.46;101150.41;4958892;29;1544;-55
2023/09/26 08:29:32;;;;;;;;;;;;;;;16.92;55.23;101146.00;4959289;29;1209;-54
2023/09/26 08:31:57;;;;;;;;;;;;;;;16.88;55.25;101155.81;4959009;29;2209;-54
2023/09/26 08:34:23;;;;;;;;;;;;;;;16.84;55.05;101161.00;4958650;29;1985;-55
2023/09/26 08:36:48;;;;;;;;;;;;;;;16.83;55.00;101148.41;4959073;28;1429;-55
2023/09/26 08:39:14;;;;;;;;;;;;;;;16.76;55.00;101158.78;4958775;28;1236;-55
2023/09/26 08:41:40;;;;;;;;;;;;;;;16.81;54.85;101160.72;4958523;28;1330;-55
2023/09/26 08:44:05;;;;;;;;;;;;;;;16.74;54.79;101156.28;4955473;28;1552;-56
2023/09/26 08:46:31;;;;;;;;;;;;;;;16.79;54.90;101165.66;4955623;29;1155;-56
2023/09/26 08:48:57;;;;;;;;;;;;;;;16.73;54.75;101160.16;4960024;29;1220;-56
2023/09/26 08:51:22;;;;;;;;;;;;;;;16.72;54.71;101157.66;4960701;29;1045;-59
2023/09/26 08:53:48;;;;;;;;;;;;;;;16.71;54.81;101158.75;4960420;29;1902;-56
2023/09/26 08:56:14;;;;;;;;;;;;;;;16.69;54.89;101163.66;4960548;28;1068;-55
2023/09/26 08:58:39;;;;;;;;;;;;;;;16.70;54.89;101157.09;4956297;29;870;-55
2023/09/26 09:01:06;;;;;;;;;;;;;;;16.70;54.89;101155.16;4958450;28;1885;-55
2023/09/26 09:03:32;;;;;;;;;;;;;;;16.66;54.83;101162.31;4952689;29;1460;-55
2023/09/26 09:05:58;;;;;;;;;;;;;;;16.73;54.75;101157.41;4958257;29;1226;-56
2023/09/26 09:08:23;;;;;;;;;;;;;;;16.73;54.96;101148.31;4960138;29;1188;-56
2023/09/26 09:10:52;;;;;;;;;;;;;;;16.72;54.65;101147.50;4960247;28;1244;-56
2023/09/26 09:13:27;;;;;;;;;;;;;;;16.70;54.92;101148.84;4960078;28;1030;-56
2023/09/26 09:16:05;;;;;;;;;;;;;;;16.71;54.91;101164.25;4960093;28;1907;-55
2023/09/26 09:18:31;;;;;;;;;;;;;;;16.73;54.93;101168.38;4960047;29;1295;-54
2023/09/26 09:20:57;;;;;;;;;;;;;;;16.70;54.78;101163.41;4960299;28;1307;-54
2023/09/26 09:23:22;;;;;;;;;;;;;;;16.66;54.89;101151.31;4956059;28;1057;-55
2023/09/26 09:25:50;;;;;;;;;;;;;;;16.66;55.25;101173.28;4959842;28;1267;-55
2023/09/26 09:28:18;;;;;;;;;;;;;;;16.66;55.24;101173.28;4959917;28;1382;-55
2023/09/26 09:30:43;;;;;;;;;;;;;;;17.71;55.63;101177.09;4959197;28;2452;-55
2023/09/26 09:33:09;;;;;;;;;;;;;;;17.29;56.43;101169.78;4958989;28;1129;-55
2023/09/26 09:35:35;;;;;;;;;;;;;;;17.13;56.25;101171.66;4950107;28;1969;-56
2023/09/26 09:38:00;;;;;;;;;;;;;;;17.02;56.00;101173.50;4947122;29;1137;-56
2023/09/26 09:40:26;;;;;;;;;;;;;;;17.03;55.80;101171.59;4959308;29;1030;-57
2023/09/26 09:42:52;;;;;;;;;;;;;;;17.03;55.60;101160.63;4947005;29;1117;-58
2023/09/26 09:45:18;;;;;;;;;;;;;;;16.91;55.90;101169.06;4959710;29;1030;-55
2023/09/26 09:47:47;;;;;;;;;;;;;;;16.95;55.40;101161.13;4942102;29;849;-55
2023/09/26 09:50:13;;;;;;;;;;;;;;;16.92;55.55;101163.28;4949934;28;1300;-55
2023/09/26 09:52:40;;;;;;;;;;;;;;;16.88;55.24;101156.69;4943245;29;1137;-56
2023/09/26 09:55:08;;;;;;;;;;;;;;;16.87;55.48;101168.75;4950472;29;1976;-56
2023/09/26 09:57:33;;;;;;;;;;;;;;;16.86;55.38;101180.00;4945261;29;1149;-58
2023/09/26 09:59:59;;;;;;;;;;;;;;;16.86;55.32;101182.75;4950082;29;1187;-52
2023/09/26 10:02:24;;;;;;;;;;;;;;;16.96;55.75;101179.22;4951795;29;2412;-56
2023/09/26 10:04:55;;;;;;;;;;;;;;;16.86;55.75;101166.25;4953782;29;1151;-55
2023/09/26 10:07:24;;;;;;;;;;;;;;;16.90;55.30;101170.13;4957713;29;1017;-55
2023/09/26 10:09:49;;;;;;;;;;;;;;;16.85;55.20;101175.59;4938144;29;1177;-55
2023/09/26 10:12:15;;;;;;;;;;;;;;;16.81;55.30;101169.78;4951559;29;1018;-56
2023/09/26 10:14:40;;;;;;;;;;;;;;;16.84;55.33;101168.44;4940190;29;1906;-55
2023/09/26 10:17:06;;;;;;;;;;;;;;;16.88;55.02;101162.16;4951760;29;1168;-56
2023/09/26 10:19:32;;;;;;;;;;;;;;;16.84;55.35;101171.19;4944435;29;1089;-55
2023/09/26 10:22:16;;;;;;;;;;;;;;;16.77;55.44;101172.25;4957966;29;1101;-55
2023/09/26 10:24:46;;;;;;;;;;;;;;;16.80;55.53;101181.03;4947238;29;1057;-56
2023/09/26 10:27:12;;;;;;;;;;;;;;;16.82;55.48;101176.13;4943717;29;1114;-56
2023/09/26 10:29:38;;;;;;;;;;;;;;;16.83;55.54;101175.84;4958654;29;1053;-55
2023/09/26 10:32:04;;;;;;;;;;;;;;;16.81;55.31;101177.22;4958088;29;2346;-55
2023/09/26 10:34:31;;;;;;;;;;;;;;;16.83;55.21;101175.00;4953559;29;1914;-56
2023/09/26 10:36:57;;;;;;;;;;;;;;;16.81;55.30;101179.97;4956832;29;1182;-56
2023/09/26 10:39:38;;;;;;;;;;;;;;;16.83;55.25;101180.50;4947899;29;1479;-56
2023/09/26 10:42:13;;;;;;;;;;;;;;;16.79;55.19;101176.63;4956109;28;1228;-56
2023/09/26 10:44:45;;;;;;;;;;;;;;;16.77;55.33;101183.25;4958745;29;994;-55
2023/09/26 10:47:13;;;;;;;;;;;;;;;16.74;55.33;101178.25;4957629;29;878;-56
2023/09/26 10:49:39;;;;;;;;;;;;;;;16.75;55.19;101166.19;4944385;29;1068;-55
2023/09/26 10:52:07;;;;;;;;;;;;;;;16.73;55.25;101181.28;4946079;29;1193;-56
2023/09/26 10:54:34;;;;;;;;;;;;;;;16.76;55.42;101169.78;4957963;29;1978;-56
2023/09/26 10:57:00;;;;;;;;;;;;;;;16.77;55.29;101176.91;4957557;28;1033;-56
2023/09/26 10:59:29;;;;;;;;;;;;;;;16.77;55.08;101175.00;4953118;29;1037;-56
2023/09/26 11:01:55;;;;;;;;;;;;;;;16.72;55.16;101163.97;4940892;29;2460;-57
2023/09/26 11:04:20;;;;;;;;;;;;;;;16.73;55.27;101171.13;4951594;29;1022;-56
2023/09/26 11:06:46;;;;;;;;;;;;;;;16.73;55.21;101159.31;4947182;29;1072;-56
2023/09/26 11:09:12;;;;;;;;;;;;;;;16.71;55.25;101161.50;4957555;28;1081;-56
2023/09/26 11:11:37;;;;;;;;;;;;;;;16.65;55.19;101171.63;4954849;28;903;-56
2023/09/26 11:14:03;;;;;;;;;;;;;;;16.71;55.08;101165.06;4951507;29;1898;-56
2023/09/26 11:16:29;;;;;;;;;;;;;;;16.73;55.00;101168.38;4951505;29;1150;-56
2023/09/26 11:18:54;;;;;;;;;;;;;;;16.72;54.91;101165.91;4945460;28;1008;-56
2023/09/26 11:21:20;;;;;;;;;;;;;;;16.73;54.86;101149.16;4952502;28;1120;-56
2023/09/26 11:23:46;;;;;;;;;;;;;;;16.70;54.81;101157.91;4954136;29;1006;-56
2023/09/26 11:26:11;;;;;;;;;;;;;;;16.70;54.73;101160.66;4956877;29;1005;-56
2023/09/26 11:28:37;;;;;;;;;;;;;;;16.70;55.11;101162.59;4949105;29;1089;-55
2023/09/26 11:31:03;;;;;;;;;;;;;;;16.68;55.19;101140.88;4950909;29;2323;-57
2023/09/26 11:33:28;;;;;;;;;;;;;;;16.67;55.21;101150.19;4949143;29;1137;-57
2023/09/26 11:35:54;;;;;;;;;;;;;;;16.64;55.03;101147.19;4949722;29;2001;-57
2023/09/26 11:38:20;;;;;;;;;;;;;;;16.67;55.13;101144.72;4962095;28;1263;-56
2023/09/26 11:40:45;;;;;;;;;;;;;;;16.68;54.90;101140.88;4958680;28;1027;-56
2023/09/26 11:43:11;;;;;;;;;;;;;;;16.65;54.78;101141.41;4957608;28;1283;-57
2023/09/26 11:45:37;;;;;;;;;;;;;;;16.64;54.94;101134.28;4957318;29;994;-56
2023/09/26 11:48:03;;;;;;;;;;;;;;;16.68;54.94;101135.41;4947631;28;1335;-57
2023/09/26 11:50:28;;;;;;;;;;;;;;;16.64;54.96;101134.28;4955267;29;1101;-56
2023/09/26 11:52:58;;;;;;;;;;;;;;;17.26;55.84;101127.19;4957341;28;1338;-56
2023/09/26 11:55:24;;;;;;;;;;;;;;;17.41;56.37;101131.88;4958935;28;1993;-56
2023/09/26 11:57:49;;;;;;;;;;;;;;;17.17;56.57;101133.47;4951155;28;1102;-56
2023/09/26 12:00:19;;;;;;;;;;;;;;;17.08;56.12;101133.16;4959600;29;1186;-56
2023/09/26 12:02:50;;;;;;;;;;;;;;;16.93;56.51;101134.72;4960919;28;2395;-56
2023/09/26 12:05:22;;;;;;;;;;;;;;;16.98;55.72;101124.88;4960951;29;1350;-57
2023/09/26 12:07:51;;;;;;;;;;;;;;;16.99;55.70;101130.09;4961061;28;1141;-57
2023/09/26 12:10:18;;;;;;;;;;;;;;;16.91;55.49;101125.09;4960412;29;1073;-57
2023/09/26 12:12:43;;;;;;;;;;;;;;;16.95;55.48;101123.47;4948770;28;1389;-56
2023/09/26 12:15:15;;;;;;;;;;;;;;;16.91;55.26;101127.84;4966411;28;1922;-56
2023/09/26 12:17:40;;;;;;;;;;;;;;;16.93;55.08;101114.69;4962855;28;1139;-56
2023/09/26 12:20:10;;;;;;;;;;;;;;;16.91;55.18;101128.69;4961032;28;1287;-56
2023/09/26 12:22:36;;;;;;;;;;;;;;;16.89;54.99;101128.13;4961669;28;1137;-57
2023/09/26 12:25:02;;;;;;;;;;;;;;;16.86;54.96;101122.31;4953619;28;1325;-56
2023/09/26 12:27:27;;;;;;;;;;;;;;;16.88;55.07;101133.84;4960821;29;1170;-56
2023/09/26 12:29:53;;;;;;;;;;;;;;;16.83;55.27;101139.31;4961195;28;1381;-56
2023/09/26 12:32:18;;;;;;;;;;;;;;;16.81;55.00;101138.75;4960980;28;2615;-57
2023/09/26 12:34:44;;;;;;;;;;;;;;;16.80;55.28;101137.09;4942646;28;1914;-56
2023/09/26 12:37:09;;;;;;;;;;;;;;;16.80;55.15;101137.09;4956569;28;982;-56
2023/09/26 12:39:34;;;;;;;;;;;;;;;16.79;54.89;101136.28;4960810;28;1339;-56
2023/09/26 12:42:00;;;;;;;;;;;;;;;16.73;55.34;101129.94;4960558;29;1036;-57